Weather at Campo di Volo Paretano Fly

Public forecast

Using degrees Celsius for public forecast. Weather courtesy of forecast.io.

Closest aviation weather report (METAR) to Campo di Volo Paretano Fly

Closest report is Gioia Del Colle Air Base, 16.3 nm (30.3 km) WSW. Retrieved 2021/10/16 16:55 UTC (14 minutes ago):

LIBV 161655Z 31006KT 9999 BKN040 14/09 Q1014 RMK BKN VIS MIN 9999 WIND THR32 30006KT WIND THR14 30006KT BLU

Closest aviation forecast (TAF) to Campo di Volo Paretano Fly

Forecast is more than 12 hours old.

Closest forecast is Gioia Del Colle Air Base, 16.3 nm (30.3 km) WSW. Retrieved 2020/04/18 15:27 UTC (1 year ago):

TAF TAF COR LIBV 181705Z 1815/1903 18008KT CAVOK